Terminal Aerodrome Forecast
Issued by NWS

Home | Current Version | Previous Version | Text Only | Print | Product List | Glossary On
Versions: 1 2 3 4 5 6 7 8 9 10 11 12 13 14 15 16 17 18 19
000
FTUS41 KPHI 290500
TAFPNE
TAF
KPNE 290528Z 2906/3006 VRB03KT P6SM SCT100 BKN250
     FM290900 14005KT P6SM BKN070
     FM291800 18007KT P6SM BKN100=

USA.gov is the U.S. government's official web portal to all federal, state and local government web resources and services.